Ana Sayfa
METAR-TAF:

METAR-TAF

Havaalanları :

Orange County Airport

Montgomery, New York, Amerika Birleşik Devletleri

Enlem: 41-30-33N, Boylam: 074-15-54W, yükseklik: 111 m

Güncel hava durumu gözlemi

Rapor saat 09:54 UTC de 31 dakika önce yapıldı.
Rüzgar batıdan 5 kt
Sıcaklık -7°C
Nem 57%
Basınç 1037 hPa
Görüş mesafesi: 16.1 km
Açık gökyüzü

METAR: KMGJ 120954Z AUTO 26005KT 10SM CLR M07/M14 A3061 RMK AO2 SLP369 T10671139

Saat: 05:25 (10:25 UTC)


TAF: eksik

4.000'den fazla havaalanı için hava durumu gözlemleri ve tahminleri (METAR ve TAF raporları).

Kullanılabilir istasyonlar harita üzerinde sarı ve kırmızı noktalarla gösterilir.

İstasyonun adını görmek için fareyi noktanın üzerinde gezdirin.

Sonrasında hava gözlem ve tahminlerini görmek için tıklayın.

Haritayı değiştirmek için: yaklaştırmak için siyah artı işaretli yeşil düğmeye ve uzaklaştırmak için de eksi işaretli düğmeye hızla tıklayın; bitişik haritalar için yeşil okları kullanın.


METAR-TAF: